createdAt,value
2017-04-08T00:00:30.373Z,76.4
2017-04-08T00:01:10.966Z,76.98
2017-04-08T00:01:51.567Z,77.07
2017-04-08T00:02:32.192Z,76.69
2017-04-08T00:03:12.787Z,77.17
2017-04-08T00:03:53.395Z,77.07
2017-04-08T00:04:33.994Z,77.17
2017-04-08T00:05:14.603Z,76.88
2017-04-08T00:05:55.197Z,76.98
2017-04-08T00:06:35.809Z,76.98
2017-04-08T00:07:16.404Z,76.98
2017-04-08T00:07:57.005Z,76.79
2017-04-08T00:08:37.599Z,76.88
2017-04-08T00:09:18.251Z,76.98
2017-04-08T00:09:58.879Z,76.88
2017-04-08T00:10:39.426Z,76.79
2017-04-08T00:11:20.015Z,76.98
2017-04-08T00:12:00.636Z,77.07
2017-04-08T00:12:41.228Z,77.64
2017-04-08T00:13:21.825Z,76.98
2017-04-08T00:14:02.378Z,77.26
2017-04-08T00:14:43.004Z,77.26
2017-04-08T00:15:23.611Z,76.98
2017-04-08T00:16:04.218Z,76.79
2017-04-08T00:16:44.833Z,77.17
2017-04-08T00:17:25.444Z,76.79
2017-04-08T00:18:06.019Z,77.07
2017-04-08T00:18:46.606Z,77.36
2017-04-08T00:19:27.189Z,77.17
2017-04-08T00:20:07.819Z,76.88
2017-04-08T00:20:48.421Z,77.36
2017-04-08T00:21:29.040Z,77.26
2017-04-08T00:22:09.613Z,77.45
2017-04-08T00:22:50.197Z,77.26
2017-04-08T00:23:30.780Z,77.26
2017-04-08T00:24:11.395Z,77.74
2017-04-08T00:24:52.001Z,77.74
2017-04-08T00:25:32.607Z,77.07
2017-04-08T00:26:13.196Z,77.07
2017-04-08T00:26:53.788Z,76.98
2017-04-08T00:27:34.368Z,77.07
2017-04-08T00:28:14.994Z,76.98
2017-04-08T00:28:55.553Z,77.26
2017-04-08T00:29:36.191Z,77.07
2017-04-08T00:30:16.827Z,77.17
2017-04-08T00:30:57.406Z,77.17
2017-04-08T00:31:37.994Z,76.98
2017-04-08T00:32:18.655Z,77.17
2017-04-08T00:32:59.328Z,77.17
2017-04-08T00:33:39.911Z,77.36
2017-04-08T00:34:20.505Z,77.17
2017-04-08T00:35:01.095Z,77.07
2017-04-08T00:35:41.702Z,77.07
2017-04-08T00:36:22.311Z,76.88
2017-04-08T00:37:02.912Z,77.17
2017-04-08T00:37:43.479Z,77.64
2017-04-08T00:38:24.071Z,77.64
2017-04-08T00:39:04.648Z,76.88
2017-04-08T00:39:45.214Z,77.64
2017-04-08T00:40:25.792Z,77.64
2017-04-08T00:41:06.378Z,77.17
2017-04-08T00:41:46.961Z,77.45
2017-04-08T00:42:27.530Z,76.98
2017-04-08T00:43:08.102Z,77.45
2017-04-08T00:43:48.669Z,77.17
2017-04-08T00:44:29.244Z,77.36
2017-04-08T00:45:09.838Z,77.36
2017-04-08T00:45:50.446Z,77.36
2017-04-08T00:46:31.026Z,77.36
2017-04-08T00:47:11.620Z,77.74
2017-04-08T00:47:52.199Z,77.55
2017-04-08T00:48:32.785Z,77.64
2017-04-08T00:49:13.391Z,77.55
2017-04-08T00:49:53.956Z,77.07
2017-04-08T00:50:34.523Z,76.79
2017-04-08T00:51:15.104Z,76.88
2017-04-08T00:51:55.712Z,77.07
2017-04-08T00:52:36.301Z,76.98
2017-04-08T00:53:16.899Z,77.26
2017-04-08T00:53:57.485Z,77.64
2017-04-08T00:54:38.051Z,77.36
2017-04-08T00:55:18.646Z,77.36
2017-04-08T00:55:59.236Z,77.45
2017-04-08T00:56:39.822Z,77.74
2017-04-08T00:57:20.406Z,77.17
2017-04-08T00:58:01.012Z,77.07
2017-04-08T00:58:41.577Z,76.98
2017-04-08T00:59:22.279Z,77.17
2017-04-08T01:00:02.909Z,77.17
2017-04-08T01:00:43.487Z,76.98
2017-04-08T01:01:24.050Z,76.98
2017-04-08T01:02:04.626Z,77.17
2017-04-08T01:02:45.201Z,77.26
2017-04-08T01:03:25.788Z,77.07
2017-04-08T01:04:06.381Z,77.17
2017-04-08T01:04:46.973Z,76.88
2017-04-08T01:05:27.586Z,77.64
2017-04-08T01:06:08.184Z,77.64
2017-04-08T01:06:48.765Z,76.98
2017-04-08T01:07:29.356Z,77.36
2017-04-08T01:08:09.956Z,76.98
2017-04-08T01:08:50.532Z,77.07
2017-04-08T01:09:31.136Z,77.07
2017-04-08T01:10:11.741Z,77.26
2017-04-08T01:10:52.288Z,77.07
2017-04-08T01:11:32.943Z,77.26
2017-04-08T01:12:13.511Z,76.98
2017-04-08T01:12:54.158Z,76.88
2017-04-08T01:13:34.736Z,76.98
2017-04-08T01:14:15.325Z,77.07
2017-04-08T01:14:55.934Z,76.69
2017-04-08T01:15:36.515Z,76.79
2017-04-08T01:16:17.126Z,76.4
2017-04-08T01:16:57.739Z,76.79
2017-04-08T01:17:38.327Z,76.88
2017-04-08T01:18:18.928Z,77.07
2017-04-08T01:18:59.529Z,77.07
2017-04-08T01:19:40.112Z,77.07
2017-04-08T01:20:20.751Z,76.98
2017-04-08T01:21:01.397Z,76.98
2017-04-08T01:21:41.974Z,76.79
2017-04-08T01:22:22.557Z,77.26
2017-04-08T01:23:03.138Z,77.36
2017-04-08T01:23:43.714Z,76.79
2017-04-08T01:24:24.305Z,76.88
2017-04-08T01:25:04.889Z,76.88
2017-04-08T01:25:45.463Z,77.07
2017-04-08T01:26:26.042Z,76.88
2017-04-08T01:27:06.630Z,76.88
2017-04-08T01:27:47.219Z,76.31
2017-04-08T01:28:27.809Z,76.5
2017-04-08T01:29:08.402Z,76.31
2017-04-08T01:29:49.040Z,76.5
2017-04-08T01:30:29.580Z,76.79
2017-04-08T01:31:10.164Z,76.59
2017-04-08T01:31:50.767Z,76.88
2017-04-08T01:32:31.321Z,76.84
2017-04-08T01:33:11.914Z,76.65
2017-04-08T01:33:52.510Z,77.13
2017-04-08T01:34:33.117Z,77.7
2017-04-08T01:35:13.773Z,77.32
2017-04-08T01:35:54.417Z,77.03
2017-04-08T01:36:34.991Z,77.61
2017-04-08T01:37:15.584Z,77.32
2017-04-08T01:37:56.143Z,77.42
2017-04-08T01:38:36.757Z,77.61
2017-04-08T01:39:17.341Z,77.51
2017-04-08T01:39:57.922Z,77.51
2017-04-08T01:40:38.489Z,77.61
2017-04-08T01:41:19.072Z,77.61
2017-04-08T01:41:59.708Z,77.13
2017-04-08T01:42:40.295Z,77.51
2017-04-08T01:43:20.899Z,77.32
2017-04-08T01:44:01.470Z,77.32
2017-04-08T01:44:42.053Z,77.51
2017-04-08T01:45:22.662Z,77.42
2017-04-08T01:46:03.256Z,77.22
2017-04-08T01:46:43.828Z,77.61
2017-04-08T01:47:24.414Z,77.51
2017-04-08T01:48:05.001Z,77.89
2017-04-08T01:48:45.604Z,78.08
2017-04-08T01:49:26.193Z,77.8
2017-04-08T01:50:06.766Z,77.51
2017-04-08T01:50:47.382Z,77.32
2017-04-08T01:51:27.972Z,77.42
2017-04-08T01:52:08.561Z,77.7
2017-04-08T01:52:49.153Z,77.98
2017-04-08T01:53:29.777Z,77.8
2017-04-08T01:54:10.448Z,77.98
2017-04-08T01:54:51.066Z,78.17
2017-04-08T01:55:31.657Z,78.17
2017-04-08T01:56:12.235Z,77.8
2017-04-08T01:56:52.850Z,78.27
2017-04-08T01:57:33.428Z,77.98
2017-04-08T01:58:14.049Z,78.08
2017-04-08T01:58:54.683Z,78.17
2017-04-08T01:59:35.319Z,77.98
2017-04-08T02:00:15.933Z,78.37
2017-04-08T02:00:56.594Z,78.08
2017-04-08T02:01:37.179Z,78.27
2017-04-08T02:02:17.795Z,78.17
2017-04-08T02:02:58.412Z,78.46
2017-04-08T02:03:39.067Z,78.27
2017-04-08T02:04:19.605Z,78.27
2017-04-08T02:05:00.195Z,78.94
2017-04-08T02:05:40.824Z,78.17
2017-04-08T02:06:21.499Z,78.46
2017-04-08T02:07:02.078Z,78.75
2017-04-08T02:07:42.660Z,78.17
2017-04-08T02:08:23.241Z,78.85
2017-04-08T02:09:03.819Z,78.85
2017-04-08T02:09:44.406Z,78.85
2017-04-08T02:10:24.984Z,78.85
2017-04-08T02:11:05.578Z,78.75
2017-04-08T02:11:46.213Z,78.75
2017-04-08T02:12:26.787Z,78.85
2017-04-08T02:13:07.358Z,78.85
2017-04-08T02:13:47.977Z,78.85
2017-04-08T02:14:28.578Z,78.75
2017-04-08T02:15:09.148Z,78.08
2017-04-08T02:15:49.732Z,78.17
2017-04-08T02:16:30.309Z,78.27
2017-04-08T02:17:10.885Z,78.27
2017-04-08T02:17:51.486Z,77.98
2017-04-08T02:18:32.077Z,78.37
2017-04-08T02:19:12.665Z,78.37
2017-04-08T02:19:53.250Z,78.08
2017-04-08T02:20:33.823Z,78.46
2017-04-08T02:21:14.407Z,78.27
2017-04-08T02:21:54.977Z,78.27
2017-04-08T02:22:35.548Z,78.46
2017-04-08T02:23:16.109Z,78.27
2017-04-08T02:23:56.701Z,78.46
2017-04-08T02:24:37.272Z,78.46
2017-04-08T02:25:17.857Z,78.27
2017-04-08T02:25:58.442Z,78.85
2017-04-08T02:26:39.021Z,79.03
2017-04-08T02:27:19.582Z,78.17
2017-04-08T02:28:00.165Z,78.46
2017-04-08T02:28:40.745Z,78.27
2017-04-08T02:29:21.359Z,78.17
2017-04-08T02:30:02.008Z,78.08
2017-04-08T02:30:42.552Z,78.37
2017-04-08T02:31:23.171Z,78.46
2017-04-08T02:32:03.732Z,78.37
2017-04-08T02:32:44.399Z,78.37
2017-04-08T02:33:25.021Z,78.17
2017-04-08T02:34:05.598Z,77.98
2017-04-08T02:34:46.184Z,78.08
2017-04-08T02:35:26.779Z,78.08
2017-04-08T02:36:07.371Z,78.23
2017-04-08T02:36:47.973Z,78.23
2017-04-08T02:37:28.565Z,78.37
2017-04-08T02:38:09.188Z,78.8
2017-04-08T02:38:49.792Z,78.8
2017-04-08T02:39:30.414Z,78.71
2017-04-08T02:40:11.041Z,78.85
2017-04-08T02:40:51.608Z,78.17
2017-04-08T02:41:32.194Z,78.46
2017-04-08T02:42:12.774Z,78.27
2017-04-08T02:42:53.350Z,78.27
2017-04-08T02:43:33.952Z,78.08
2017-04-08T02:44:14.511Z,77.8
2017-04-08T02:44:55.092Z,78.17
2017-04-08T02:45:35.722Z,77.89
2017-04-08T02:46:16.331Z,78.08
2017-04-08T02:46:57.021Z,77.61
2017-04-08T02:47:37.592Z,77.42
2017-04-08T02:48:18.179Z,77.13
2017-04-08T02:48:58.812Z,76.94
2017-04-08T02:49:39.456Z,77.03
2017-04-08T02:50:20.028Z,77.51
2017-04-08T02:51:00.609Z,77.51
2017-04-08T02:51:41.192Z,77.61
2017-04-08T02:52:21.759Z,77.13
2017-04-08T02:53:02.369Z,77.03
2017-04-08T02:53:42.986Z,77.03
2017-04-08T02:54:23.580Z,77.13
2017-04-08T02:55:04.188Z,77.32
2017-04-08T02:55:44.758Z,77.13
2017-04-08T02:56:25.337Z,77.51
2017-04-08T02:57:05.916Z,77.32
2017-04-08T02:57:46.515Z,77.51
2017-04-08T02:58:27.095Z,77.42
